Time;durP1;ratioP1;P1;durP2;ratioP2;P2;SDS_P1;SDS_P2;PMS_P1;PMS_P2;Temp;Humidity;BMP_temperature;BMP_pressure;BME280_temperature;BME280_humidity;BME280_pressure;Samples;Min_cycle;Max_cycle;Signal;HPM_P1;HPM_P2
2022/09/01 00:01:20;;;;;;;10.52;9.63;;;25.50;1.00;;;;;;5033771;28;20056;-53
2022/09/01 00:03:47;;;;;;;10.98;9.98;;;25.50;1.00;;;;;;5045007;28;20479;-51
2022/09/01 00:06:14;;;;;;;10.10;9.20;;;25.50;1.00;;;;;;5024590;28;20026;-50
2022/09/01 00:08:40;;;;;;;11.02;9.45;;;25.40;1.00;;;;;;5039647;28;20037;-55
2022/09/01 00:11:06;;;;;;;9.60;8.70;;;25.50;1.00;;;;;;5039319;28;20028;-52
2022/09/01 00:13:32;;;;;;;9.63;8.80;;;25.50;1.00;;;;;;5034145;28;20033;-51
2022/09/01 00:15:59;;;;;;;10.35;9.38;;;25.50;1.00;;;;;;5033822;28;20026;-50
2022/09/01 00:18:25;;;;;;;10.45;9.60;;;25.40;1.00;;;;;;5032627;28;20084;-54
2022/09/01 00:20:51;;;;;;;10.10;9.30;;;25.40;1.00;;;;;;5033782;28;20033;-50
2022/09/01 00:23:16;;;;;;;9.82;8.93;;;25.40;1.00;;;;;;5032623;28;20037;-54
2022/09/01 00:25:42;;;;;;;8.63;7.88;;;25.40;1.00;;;;;;5032438;28;20076;-52
2022/09/01 00:28:07;;;;;;;8.90;8.10;;;25.40;1.00;;;;;;5021215;28;20067;-53
2022/09/01 00:30:33;;;;;;;9.13;8.02;;;25.50;1.00;;;;;;5032377;28;20486;-52
2022/09/01 00:32:58;;;;;;;8.68;7.97;;;25.50;1.00;;;;;;5043791;28;20049;-53
2022/09/01 00:35:24;;;;;;;9.40;8.50;;;25.50;1.00;;;;;;5034916;28;20018;-52
2022/09/01 00:37:50;;;;;;;8.10;7.30;;;25.50;1.00;;;;;;5032582;28;20088;-53
2022/09/01 00:40:16;;;;;;;9.00;8.20;;;25.50;1.00;;;;;;5033523;28;20057;-51
2022/09/01 00:42:43;;;;;;;8.43;7.72;;;25.50;1.00;;;;;;5038985;28;20025;-50
2022/09/01 00:45:10;;;;;;;8.90;8.20;;;25.50;1.00;;;;;;5039861;28;20025;-52
2022/09/01 00:47:36;;;;;;;8.73;7.90;;;25.50;1.00;;;;;;5032093;28;20021;-52
2022/09/01 00:50:04;;;;;;;9.13;8.20;;;25.40;1.00;;;;;;5032958;28;20061;-55
2022/09/01 00:52:34;;;;;;;9.50;8.40;;;25.40;1.00;;;;;;5034614;28;20071;-53
2022/09/01 00:55:12;;;;;;;9.30;8.15;;;25.30;1.00;;;;;;5032996;28;20029;-52
2022/09/01 00:57:38;;;;;;;8.13;7.43;;;25.40;1.00;;;;;;5039486;28;20052;-56
2022/09/01 01:00:25;;;;;;;8.00;7.35;;;25.40;1.00;;;;;;5032900;28;20026;-55
2022/09/01 01:02:57;;;;;;;8.55;7.85;;;25.40;1.00;;;;;;5034836;28;20033;-54
2022/09/01 01:05:31;;;;;;;8.48;7.78;;;25.50;1.00;;;;;;5032268;28;20498;-56
2022/09/01 01:08:10;;;;;;;8.18;7.40;;;25.50;1.00;;;;;;5032167;28;20514;-56
2022/09/01 01:10:39;;;;;;;6.38;5.88;;;25.40;1.00;;;;;;5032091;28;20025;-56
2022/09/01 01:13:11;;;;;;;6.07;5.57;;;25.40;1.00;;;;;;5035782;28;20025;-56
2022/09/01 01:15:37;;;;;;;7.57;6.72;;;25.40;1.00;;;;;;5031978;28;20100;-54
2022/09/01 01:18:03;;;;;;;7.40;6.80;;;25.40;1.00;;;;;;5036800;28;20033;-53
2022/09/01 01:23:35;;;;;;;6.13;5.63;;;25.40;1.00;;;;;;5029733;28;20490;-53
2022/09/01 01:26:03;;;;;;;6.72;5.90;;;25.40;1.00;;;;;;5031854;28;20018;-55
2022/09/01 01:28:34;;;;;;;8.18;6.35;;;25.40;1.00;;;;;;5030759;28;20049;-50
2022/09/01 01:31:10;;;;;;;6.28;5.68;;;25.30;1.00;;;;;;5032410;28;20021;-54
2022/09/01 01:33:40;;;;;;;6.13;5.63;;;25.40;1.00;;;;;;5021660;28;20029;-53
2022/09/01 01:36:32;;;;;;;6.45;5.90;;;25.40;1.00;;;;;;5031745;28;20022;-54
2022/09/01 01:39:08;;;;;;;5.35;4.90;;;25.40;1.00;;;;;;5027247;28;20497;-51
2022/09/01 01:41:39;;;;;;;6.25;5.68;;;25.40;1.00;;;;;;5031553;28;20033;-54
2022/09/01 01:44:05;;;;;;;6.75;5.95;;;25.40;1.00;;;;;;5035744;28;20152;-51
2022/09/01 01:46:35;;;;;;;6.30;5.43;;;25.30;1.00;;;;;;5031444;28;20038;-54
2022/09/01 01:49:03;;;;;;;6.28;5.78;;;25.40;1.00;;;;;;5031906;28;20057;-55
2022/09/01 01:51:31;;;;;;;5.35;4.85;;;25.30;1.00;;;;;;5030742;28;20041;-50
2022/09/01 01:54:00;;;;;;;5.57;5.07;;;25.40;1.00;;;;;;5030428;28;20122;-54
2022/09/01 01:56:26;;;;;;;6.28;4.72;;;25.30;1.00;;;;;;5029904;28;20395;-53
2022/09/01 01:58:54;;;;;;;4.95;4.55;;;25.40;1.00;;;;;;5036058;28;20025;-53
2022/09/01 02:01:27;;;;;;;5.47;4.72;;;25.40;1.00;;;;;;5028923;28;20529;-55
2022/09/01 02:03:55;;;;;;;4.72;4.32;;;25.40;1.00;;;;;;5028663;28;20061;-55
2022/09/01 02:06:24;;;;;;;5.57;5.07;;;25.40;1.00;;;;;;5031334;28;20029;-54
2022/09/01 02:08:56;;;;;;;5.65;5.15;;;25.40;1.00;;;;;;5030401;28;20041;-51
2022/09/01 02:11:24;;;;;;;5.07;4.70;;;25.40;1.00;;;;;;5031428;28;20022;-53
2022/09/01 02:13:57;;;;;;;4.60;4.20;;;25.30;1.00;;;;;;5032533;28;20036;-54
2022/09/01 02:16:26;;;;;;;4.28;3.90;;;25.40;1.00;;;;;;5030329;28;20104;-54
2022/09/01 02:18:52;;;;;;;4.85;4.45;;;25.40;1.00;;;;;;5034898;28;20033;-50
2022/09/01 02:21:21;;;;;;;4.50;4.20;;;25.30;1.00;;;;;;5029325;28;20037;-53
2022/09/01 02:23:56;;;;;;;3.90;3.55;;;25.30;1.00;;;;;;5035590;28;20479;-51
2022/09/01 02:26:26;;;;;;;5.22;4.72;;;25.30;1.00;;;;;;5029606;28;20080;-51
2022/09/01 02:28:52;;;;;;;4.40;4.10;;;25.20;1.00;;;;;;5036627;28;20123;-54
2022/09/01 02:31:18;;;;;;;6.57;4.43;;;25.30;1.00;;;;;;5031044;28;20100;-53
2022/09/01 02:33:45;;;;;;;4.88;4.00;;;25.20;1.00;;;;;;5030703;28;20068;-51
2022/09/01 02:36:14;;;;;;;5.07;4.53;;;25.20;1.00;;;;;;5031231;28;20025;-52
2022/09/01 02:38:44;;;;;;;4.80;4.40;;;25.20;1.00;;;;;;5030480;28;20033;-51
2022/09/01 02:41:12;;;;;;;4.65;4.22;;;25.20;1.00;;;;;;5029679;28;20032;-51
2022/09/01 02:43:38;;;;;;;4.28;3.90;;;25.30;1.00;;;;;;5036511;28;20021;-54
2022/09/01 02:46:05;;;;;;;4.35;4.05;;;25.20;1.00;;;;;;5033408;28;20030;-54
2022/09/01 02:48:36;;;;;;;5.32;4.60;;;25.30;1.00;;;;;;5035559;28;20462;-51
2022/09/01 02:51:07;;;;;;;5.10;4.60;;;25.30;1.00;;;;;;5035133;28;20060;-56
2022/09/01 02:53:34;;;;;;;5.32;4.93;;;25.20;1.00;;;;;;5040457;28;20489;-51
2022/09/01 02:56:02;;;;;;;5.63;5.13;;;25.10;1.00;;;;;;5041624;28;20037;-53
2022/09/01 02:58:31;;;;;;;4.97;4.50;;;25.00;1.00;;;;;;5034370;28;20029;-51
2022/09/01 03:00:58;;;;;;;5.55;5.10;;;25.20;1.00;;;;;;5035568;28;20148;-51
2022/09/01 03:03:24;;;;;;;6.60;5.40;;;25.10;1.00;;;;;;5038137;28;20040;-52
2022/09/01 03:05:55;;;;;;;7.22;4.95;;;25.20;1.00;;;;;;5044166;28;20026;-50
2022/09/01 03:08:23;;;;;;;6.65;5.22;;;25.10;1.00;;;;;;5036028;28;20366;-49
2022/09/01 03:10:50;;;;;;;6.25;5.05;;;25.10;1.00;;;;;;5045131;28;20017;-56
2022/09/01 03:13:20;;;;;;;6.03;5.10;;;25.10;1.00;;;;;;5034231;28;20049;-52
2022/09/01 03:15:46;;;;;;;5.25;4.82;;;25.00;1.00;;;;;;5035567;28;20339;-52
2022/09/01 03:18:14;;;;;;;4.80;4.40;;;25.00;1.00;;;;;;5034628;28;20029;-53
2022/09/01 03:20:45;;;;;;;5.97;4.68;;;25.00;1.00;;;;;;5020986;28;20060;-56
2022/09/01 03:23:14;;;;;;;5.10;4.70;;;25.10;1.00;;;;;;5036003;28;20079;-52
2022/09/01 03:25:41;;;;;;;5.47;4.63;;;25.10;1.00;;;;;;5032932;28;20049;-56
2022/09/01 03:28:08;;;;;;;4.53;3.92;;;25.10;1.00;;;;;;5043452;28;20033;-55
2022/09/01 03:30:38;;;;;;;4.55;4.15;;;25.10;1.00;;;;;;5033541;28;20033;-55
2022/09/01 03:33:03;;;;;;;4.82;4.35;;;25.20;1.00;;;;;;5040886;28;20057;-55
2022/09/01 03:35:30;;;;;;;4.90;4.43;;;25.20;1.00;;;;;;5033613;28;20408;-54
2022/09/01 03:37:58;;;;;;;4.38;3.97;;;25.20;1.00;;;;;;5032728;28;20025;-56
2022/09/01 03:40:31;;;;;;;10.05;7.72;;;25.20;1.00;;;;;;5032257;28;20459;-56
2022/09/01 03:43:03;;;;;;;8.80;8.00;;;25.00;1.00;;;;;;5034705;28;20029;-50
2022/09/01 03:45:29;;;;;;;7.75;7.05;;;24.90;1.00;;;;;;5033548;28;20056;-54
2022/09/01 03:47:55;;;;;;;7.68;6.97;;;24.80;1.00;;;;;;5034263;28;20036;-53
2022/09/01 03:50:23;;;;;;;9.10;7.45;;;24.90;1.00;;;;;;5043856;28;20045;-51
2022/09/01 03:52:54;;;;;;;8.45;6.85;;;24.90;1.00;;;;;;5033080;28;20530;-55
2022/09/01 03:55:26;;;;;;;6.93;6.32;;;24.90;1.00;;;;;;5037665;28;20033;-53
2022/09/01 03:57:57;;;;;;;6.28;5.70;;;25.00;1.00;;;;;;5035908;28;20017;-52
2022/09/01 04:00:25;;;;;;;8.50;7.47;;;24.90;1.00;;;;;;5044043;28;20108;-52
2022/09/01 04:02:56;;;;;;;8.27;6.72;;;25.00;1.00;;;;;;5036631;28;20051;-55
2022/09/01 04:05:27;;;;;;;7.70;6.95;;;25.10;1.00;;;;;;5033305;28;20383;-51
2022/09/01 04:07:54;;;;;;;7.25;6.65;;;25.10;1.00;;;;;;5033982;28;20056;-55
2022/09/01 04:10:21;;;;;;;7.35;5.30;;;25.10;1.00;;;;;;5033791;28;20045;-57
2022/09/01 04:12:48;;;;;;;6.70;5.00;;;25.10;1.00;;;;;;5032516;28;20029;-56
2022/09/01 04:15:16;;;;;;;7.00;6.38;;;25.10;1.00;;;;;;5030858;28;20506;-55
2022/09/01 04:20:49;;;;;;;8.90;8.10;;;25.10;1.00;;;;;;5004893;28;20030;-52
2022/09/01 04:23:16;;;;;;;9.93;8.93;;;25.10;1.00;;;;;;5028605;28;20090;-55
2022/09/01 04:25:41;;;;;;;10.05;9.02;;;25.10;1.00;;;;;;5037897;28;20108;-56
2022/09/01 04:28:16;;;;;;;9.20;8.25;;;25.00;1.00;;;;;;5033198;28;20559;-55
2022/09/01 04:30:42;;;;;;;6.18;5.47;;;25.00;1.00;;;;;;5035569;28;20032;-55
2022/09/01 04:33:09;;;;;;;5.47;4.97;;;24.90;1.00;;;;;;5033136;28;20354;-52
2022/09/01 04:35:39;;;;;;;5.20;4.72;;;25.00;1.00;;;;;;5032084;28;20143;-54
2022/09/01 04:38:07;;;;;;;5.53;5.13;;;25.00;1.00;;;;;;5033076;28;20029;-55
2022/09/01 04:40:37;;;;;;;7.32;4.15;;;24.90;1.00;;;;;;5036933;28;20020;-50
2022/09/01 04:43:04;;;;;;;5.38;4.60;;;24.90;1.00;;;;;;5033078;28;20029;-51
2022/09/01 04:45:35;;;;;;;5.00;4.55;;;24.90;1.00;;;;;;5032890;28;20347;-54
2022/09/01 04:48:04;;;;;;;4.93;4.53;;;24.90;1.00;;;;;;5033049;28;20047;-53
2022/09/01 04:50:31;;;;;;;4.93;4.53;;;24.90;1.00;;;;;;5032038;28;20034;-54
2022/09/01 04:53:01;;;;;;;5.18;4.65;;;24.80;1.00;;;;;;5032939;28;20037;-52
2022/09/01 04:55:28;;;;;;;4.78;4.13;;;24.90;1.00;;;;;;5037343;28;20414;-49
2022/09/01 04:57:56;;;;;;;4.22;3.83;;;24.90;1.00;;;;;;5031349;28;20117;-54
2022/09/01 05:00:24;;;;;;;4.05;3.63;;;24.90;1.00;;;;;;5037612;28;20478;-50
2022/09/01 05:03:00;;;;;;;4.88;4.32;;;24.90;1.00;;;;;;5032771;28;20215;-51
2022/09/01 05:05:26;;;;;;;4.82;4.38;;;24.90;1.00;;;;;;5031839;28;20037;-51
2022/09/01 05:07:54;;;;;;;5.82;4.40;;;24.80;1.00;;;;;;5032711;28;20506;-51
2022/09/01 05:10:21;;;;;;;4.15;3.85;;;24.90;1.00;;;;;;5038135;28;20018;-50
2022/09/01 05:12:48;;;;;;;4.65;4.25;;;25.00;1.00;;;;;;5033604;28;20033;-51
2022/09/01 05:15:16;;;;;;;5.47;4.95;;;24.80;1.00;;;;;;5031321;28;20025;-54
2022/09/01 05:17:42;;;;;;;4.70;4.10;;;25.00;1.00;;;;;;5032713;28;20025;-51
2022/09/01 05:20:10;;;;;;;8.07;4.82;;;25.00;1.00;;;;;;5033150;28;20025;-53
2022/09/01 05:22:37;;;;;;;4.03;3.72;;;25.00;1.00;;;;;;5032820;28;20025;-51
2022/09/01 05:25:10;;;;;;;4.88;4.30;;;25.00;1.00;;;;;;5031786;28;20116;-50
2022/09/01 05:27:38;;;;;;;4.38;3.97;;;24.90;1.00;;;;;;5032474;28;20505;-51
2022/09/01 05:30:07;;;;;;;5.20;4.75;;;24.90;1.00;;;;;;5034800;28;20370;-50
2022/09/01 05:32:36;;;;;;;5.30;4.80;;;25.00;1.00;;;;;;5027118;28;20052;-55
2022/09/01 05:35:07;;;;;;;5.65;4.53;;;24.90;1.00;;;;;;5027441;28;20108;-54
2022/09/01 05:37:40;;;;;;;4.97;4.50;;;24.90;1.00;;;;;;5032081;28;20073;-51
2022/09/01 05:40:08;;;;;;;5.20;4.80;;;24.80;1.00;;;;;;5021868;28;20463;-50
2022/09/01 05:42:39;;;;;;;5.68;5.18;;;24.80;1.00;;;;;;5028815;28;20022;-56
2022/09/01 05:45:05;;;;;;;5.22;4.35;;;24.90;1.00;;;;;;5030852;28;20087;-52
2022/09/01 05:47:35;;;;;;;5.65;4.95;;;25.00;1.00;;;;;;5030064;28;20120;-56
2022/09/01 05:50:02;;;;;;;4.40;4.10;;;24.90;1.00;;;;;;5031140;28;20049;-55
2022/09/01 05:52:32;;;;;;;6.03;4.60;;;25.00;1.00;;;;;;5018115;28;20451;-55
2022/09/01 05:54:59;;;;;;;5.10;4.50;;;25.00;1.00;;;;;;5021614;28;20395;-55
2022/09/01 05:57:25;;;;;;;5.07;4.68;;;25.20;1.00;;;;;;5029241;28;20387;-54
2022/09/01 05:59:52;;;;;;;5.40;4.25;;;25.10;1.00;;;;;;5033133;28;20446;-55
2022/09/01 06:02:20;;;;;;;6.13;4.80;;;25.20;1.00;;;;;;5041309;28;20033;-52
2022/09/01 06:04:46;;;;;;;4.90;4.13;;;25.00;1.00;;;;;;5031831;28;20018;-52
2022/09/01 06:07:13;;;;;;;5.53;3.80;;;25.10;1.00;;;;;;5044493;28;20506;-50
2022/09/01 06:09:42;;;;;;;3.97;3.67;;;25.20;1.00;;;;;;5031706;28;20535;-49
2022/09/01 06:12:16;;;;;;;4.30;3.90;;;25.20;1.00;;;;;;5030958;28;20036;-54
2022/09/01 06:14:42;;;;;;;5.72;3.67;;;25.20;1.00;;;;;;5031887;28;20029;-54
2022/09/01 06:17:10;;;;;;;5.32;4.00;;;25.20;1.00;;;;;;5038668;28;20030;-50
2022/09/01 06:19:36;;;;;;;7.07;4.97;;;25.40;1.00;;;;;;5030641;28;20029;-54
2022/09/01 06:22:03;;;;;;;4.93;4.43;;;25.30;1.00;;;;;;5028710;28;20419;-56
2022/09/01 06:24:28;;;;;;;5.93;5.13;;;25.30;1.00;;;;;;5032563;28;20053;-52
2022/09/01 06:26:54;;;;;;;4.47;4.05;;;25.30;1.00;;;;;;5044494;28;20134;-54
2022/09/01 06:29:20;;;;;;;4.97;3.78;;;25.40;1.00;;;;;;5046527;28;20068;-54
2022/09/01 06:31:50;;;;;;;9.13;4.43;;;25.50;1.00;;;;;;5034139;28;20029;-53
2022/09/01 06:34:17;;;;;;;3.97;3.20;;;25.50;1.00;;;;;;5035539;28;20479;-54
2022/09/01 06:36:44;;;;;;;6.30;3.72;;;25.40;1.00;;;;;;5040035;28;20026;-52
2022/09/01 06:39:18;;;;;;;4.15;3.70;;;25.40;1.00;;;;;;5041303;28;20017;-56
2022/09/01 06:41:46;;;;;;;4.25;3.85;;;25.50;1.00;;;;;;5034803;28;20043;-54
2022/09/01 06:44:13;;;;;;;4.20;3.85;;;25.40;1.00;;;;;;5033884;28;20029;-56
2022/09/01 06:46:39;;;;;;;3.92;3.60;;;25.40;1.00;;;;;;5033318;28;20025;-56
2022/09/01 06:49:04;;;;;;;4.10;3.70;;;25.50;1.00;;;;;;5034629;28;20034;-54
2022/09/01 06:51:30;;;;;;;6.97;4.32;;;25.60;1.00;;;;;;5032803;28;20104;-56
2022/09/01 06:53:58;;;;;;;5.50;4.13;;;25.50;1.00;;;;;;5035006;28;20455;-54
2022/09/01 06:56:30;;;;;;;4.40;3.58;;;25.60;1.00;;;;;;5034431;28;20499;-55
2022/09/01 06:58:56;;;;;;;4.05;3.42;;;25.60;1.00;;;;;;5034722;28;20022;-52
2022/09/01 07:01:23;;;;;;;5.50;4.97;;;25.50;1.00;;;;;;5034044;28;20038;-53
2022/09/01 07:03:53;;;;;;;7.75;4.15;;;25.50;1.00;;;;;;5033110;28;20332;-54
2022/09/01 07:06:26;;;;;;;5.15;4.32;;;25.50;1.00;;;;;;5034309;28;20025;-53
2022/09/01 07:08:57;;;;;;;5.47;4.55;;;25.50;1.00;;;;;;5034717;28;20040;-55
2022/09/01 07:11:33;;;;;;;11.02;4.45;;;25.50;1.00;;;;;;5034301;28;20025;-55
2022/09/01 07:14:04;;;;;;;6.22;5.05;;;25.50;1.00;;;;;;5034846;28;20033;-52
2022/09/01 07:16:33;;;;;;;6.70;4.50;;;25.40;1.00;;;;;;5034230;28;20014;-54
2022/09/01 07:19:01;;;;;;;5.22;4.13;;;25.50;1.00;;;;;;5034724;28;20089;-51
2022/09/01 07:21:28;;;;;;;7.80;3.92;;;25.50;1.00;;;;;;5035626;28;20106;-53
2022/09/01 07:23:56;;;;;;;4.72;3.78;;;25.60;1.00;;;;;;5033247;28;20014;-53
2022/09/01 07:26:24;;;;;;;6.28;3.88;;;25.60;1.00;;;;;;5033840;28;20147;-53
2022/09/01 07:28:51;;;;;;;6.85;4.25;;;25.60;1.00;;;;;;5034522;28;20030;-53
2022/09/01 07:31:22;;;;;;;6.78;4.95;;;25.60;1.00;;;;;;5036374;28;20076;-51
2022/09/01 07:33:49;;;;;;;6.35;5.55;;;25.50;1.00;;;;;;5034774;28;20387;-54
2022/09/01 07:36:16;;;;;;;7.88;7.07;;;25.50;1.00;;;;;;5037011;28;20348;-52
2022/09/01 07:38:42;;;;;;;8.52;6.38;;;25.50;1.00;;;;;;5034255;28;20028;-55
2022/09/01 07:41:11;;;;;;;6.60;5.90;;;25.60;1.00;;;;;;5037007;28;20029;-53
2022/09/01 07:43:38;;;;;;;7.93;5.10;;;25.60;1.00;;;;;;5034413;28;20031;-54
2022/09/01 07:46:05;;;;;;;5.40;4.93;;;25.60;1.00;;;;;;5033564;28;20026;-51
2022/09/01 07:48:31;;;;;;;8.95;5.10;;;25.60;1.00;;;;;;5034274;28;20036;-50
2022/09/01 07:50:56;;;;;;;7.07;4.97;;;25.70;1.00;;;;;;5032288;28;20041;-54
2022/09/01 07:53:31;;;;;;;6.47;5.68;;;25.70;1.00;;;;;;5033231;28;20049;-50
2022/09/01 07:56:00;;;;;;;5.85;5.28;;;25.80;1.00;;;;;;5032318;28;20022;-52
2022/09/01 07:58:28;;;;;;;6.53;5.05;;;25.80;1.00;;;;;;5033121;28;20017;-58
2022/09/01 08:00:55;;;;;;;6.93;4.53;;;26.00;1.00;;;;;;5031017;28;20086;-54
2022/09/01 08:03:23;;;;;;;6.63;5.75;;;26.00;1.00;;;;;;5033095;28;20479;-54
2022/09/01 08:05:56;;;;;;;8.05;5.82;;;26.00;1.00;;;;;;5031114;28;20076;-57
2022/09/01 08:08:22;;;;;;;8.63;5.70;;;26.10;1.00;;;;;;5023759;28;20401;-57
2022/09/01 08:10:48;;;;;;;8.27;5.95;;;26.10;1.00;;;;;;5029879;28;20090;-56
2022/09/01 08:13:14;;;;;;;8.15;6.32;;;26.10;1.00;;;;;;5032904;28;20206;-55
2022/09/01 08:15:40;;;;;;;6.13;4.95;;;26.30;1.00;;;;;;5032301;28;20021;-56
2022/09/01 08:18:07;;;;;;;5.72;4.68;;;26.40;1.00;;;;;;5043377;28;20040;-52
2022/09/01 08:20:38;;;;;;;6.78;6.03;;;26.50;1.00;;;;;;5032158;28;20353;-55
2022/09/01 08:23:05;;;;;;;6.72;6.13;;;26.60;1.00;;;;;;5019560;28;20120;-55
2022/09/01 08:25:32;;;;;;;6.60;5.90;;;26.70;1.00;;;;;;5032720;28;20037;-56
2022/09/01 08:27:58;;;;;;;7.28;6.53;;;26.80;1.00;;;;;;5031339;28;20114;-54
2022/09/01 08:30:23;;;;;;;12.20;8.48;;;26.70;1.00;;;;;;5033326;28;20029;-55
2022/09/01 08:32:49;;;;;;;10.18;8.68;;;26.80;1.00;;;;;;5033439;28;20375;-53
2022/09/01 08:35:15;;;;;;;8.73;7.85;;;26.90;1.00;;;;;;5036006;28;20037;-55
2022/09/01 08:37:41;;;;;;;9.55;7.15;;;26.90;1.00;;;;;;5035414;28;20025;-56
2022/09/01 08:40:15;;;;;;;10.52;7.85;;;27.10;1.00;;;;;;5032815;28;20441;-55
2022/09/01 08:42:43;;;;;;;;;;;27.20;1.00;;;;;;5022745;28;20030;-56
2022/09/01 08:45:25;;;;;;;12.55;10.38;;;27.10;1.00;;;;;;5028035;28;20373;-55
2022/09/01 08:47:56;;;;;;;13.45;12.10;;;27.10;1.00;;;;;;5031319;28;20553;-55
2022/09/01 08:50:23;;;;;;;12.05;10.88;;;27.00;1.00;;;;;;4976308;28;1622231;-56
2022/09/01 08:53:17;;;;;;;9.75;7.82;;;27.00;1.00;;;;;;5043038;28;20036;-52
2022/09/01 08:55:46;;;;;;;8.65;7.78;;;27.00;1.00;;;;;;5030927;28;20113;-56
2022/09/01 08:58:16;;;;;;;9.15;8.02;;;27.00;1.00;;;;;;5023372;28;20107;-54
2022/09/01 09:00:45;;;;;;;13.27;8.57;;;27.00;1.00;;;;;;5032571;28;20026;-53
2022/09/01 09:03:41;;;;;;;10.02;9.18;;;27.20;1.00;;;;;;5026131;28;20017;-55
2022/09/01 09:06:32;;;;;;;8.57;7.78;;;27.20;1.00;;;;;;5021510;28;20515;-51
2022/09/01 09:09:06;;;;;;;8.80;7.70;;;27.20;1.00;;;;;;5031311;28;20037;-55
2022/09/01 09:11:54;;;;;;;8.07;7.30;;;27.20;1.00;;;;;;5030365;28;20550;-54
2022/09/01 09:14:50;;;;;;;10.02;9.02;;;27.30;1.00;;;;;;5019959;28;20036;-56
2022/09/01 09:17:20;;;;;;;10.98;9.02;;;27.40;1.00;;;;;;5040201;28;20021;-52
2022/09/01 09:19:45;;;;;;;11.80;8.82;;;27.40;1.00;;;;;;5040803;28;20036;-56
2022/09/01 09:22:14;;;;;;;10.55;9.45;;;27.40;1.00;;;;;;5040751;28;20534;-52
2022/09/01 09:24:46;;;;;;;9.77;8.75;;;27.20;1.00;;;;;;5031318;28;20053;-57
2022/09/01 09:27:38;;;;;;;13.23;9.15;;;27.20;1.00;;;;;;5031189;28;20041;-56
2022/09/01 09:30:08;;;;;;;9.77;8.77;;;27.00;1.00;;;;;;5032723;28;20041;-54
2022/09/01 09:32:54;;;;;;;10.63;8.00;;;26.90;1.00;;;;;;5043513;28;20043;-54
2022/09/01 09:35:30;;;;;;;10.70;9.50;;;26.90;1.00;;;;;;5032356;28;20048;-54
2022/09/01 09:38:18;;;;;;;10.43;8.18;;;26.90;1.00;;;;;;5031466;28;20463;-55
2022/09/01 09:41:04;;;;;;;9.73;8.55;;;26.90;1.00;;;;;;5031230;28;20025;-54
2022/09/01 09:43:45;;;;;;;9.20;8.32;;;27.00;1.00;;;;;;5019904;28;20044;-55
2022/09/01 09:46:40;;;;;;;8.40;7.60;;;27.10;1.00;;;;;;5027707;28;20029;-56
2022/09/01 09:49:11;;;;;;;10.43;9.63;;;27.20;1.00;;;;;;5031946;28;20033;-56
2022/09/01 09:51:39;;;;;;;12.55;8.75;;;27.30;1.00;;;;;;5031629;28;20032;-55
2022/09/01 09:54:25;;;;;;;11.43;9.60;;;27.20;1.00;;;;;;5032133;28;20053;-54
2022/09/01 09:57:13;;;;;;;10.55;9.27;;;27.30;1.00;;;;;;5019600;28;20391;-53
2022/09/01 09:59:52;;;;;;;10.65;9.55;;;27.70;1.00;;;;;;5032100;28;20025;-54
2022/09/01 10:02:31;;;;;;;8.77;7.88;;;27.70;1.00;;;;;;5032742;28;20018;-56
2022/09/01 10:05:16;;;;;;;9.90;9.00;;;27.60;1.00;;;;;;5031920;28;20021;-55
2022/09/01 10:07:41;;;;;;;11.43;10.25;;;27.50;1.00;;;;;;5031094;28;20030;-55
2022/09/01 10:10:30;;;;;;;9.98;8.82;;;27.50;1.00;;;;;;5034821;28;20087;-55
2022/09/01 10:12:57;;;;;;;12.27;11.07;;;27.40;1.00;;;;;;5031168;28;20100;-56
2022/09/01 10:15:30;;;;;;;11.90;10.73;;;27.50;1.00;;;;;;5031764;28;20131;-56
2022/09/01 10:18:05;;;;;;;12.32;11.13;;;27.60;1.00;;;;;;5034887;28;20049;-51
2022/09/01 10:20:37;;;;;;;12.52;10.05;;;27.80;1.00;;;;;;5030578;28;20032;-55
2022/09/01 10:23:03;;;;;;;9.77;8.85;;;27.90;1.00;;;;;;5030211;28;20083;-57
2022/09/01 10:25:41;;;;;;;9.73;8.93;;;27.90;1.00;;;;;;5042709;28;20037;-55
2022/09/01 10:28:20;;;;;;;11.45;10.13;;;27.90;1.00;;;;;;5032528;28;20038;-56
2022/09/01 10:30:46;;;;;;;10.93;10.02;;;27.80;1.00;;;;;;5030360;28;20037;-56
2022/09/01 10:33:15;;;;;;;10.90;10.00;;;27.80;1.00;;;;;;5036002;28;20026;-55
2022/09/01 10:35:45;;;;;;;10.23;9.23;;;28.00;1.00;;;;;;5031655;28;20025;-56
2022/09/01 10:38:26;;;;;;;8.38;7.63;;;28.30;1.00;;;;;;5031129;28;20040;-58
2022/09/01 10:41:06;;;;;;;9.43;8.60;;;28.40;1.00;;;;;;5030777;28;20036;-56
2022/09/01 10:43:48;;;;;;;8.27;7.47;;;28.50;1.00;;;;;;5030819;28;20555;-57
2022/09/01 10:46:19;;;;;;;10.65;9.52;;;28.60;1.00;;;;;;5029527;28;20021;-57
2022/09/01 10:48:49;;;;;;;10.48;9.57;;;28.50;1.00;;;;;;5036788;28;20049;-54
2022/09/01 10:51:30;;;;;;;10.10;9.02;;;28.60;1.00;;;;;;5017234;28;20101;-56
2022/09/01 10:53:59;;;;;;;10.60;9.68;;;28.70;1.00;;;;;;5037721;28;20391;-54
2022/09/01 10:56:46;;;;;;;10.98;10.00;;;28.70;1.00;;;;;;5042057;28;20033;-54
2022/09/01 10:59:24;;;;;;;9.60;8.80;;;28.70;1.00;;;;;;5024247;28;20029;-55
2022/09/01 11:01:49;;;;;;;9.23;8.43;;;28.80;1.00;;;;;;5017112;28;20018;-56
2022/09/01 11:04:39;;;;;;;8.77;7.95;;;28.70;1.00;;;;;;5031316;28;20021;-56
2022/09/01 11:07:29;;;;;;;6.85;6.25;;;28.90;1.00;;;;;;5030440;28;20108;-56
2022/09/01 11:10:11;;;;;;;8.65;7.72;;;29.10;1.00;;;;;;5031180;28;20033;-56
2022/09/01 11:12:44;;;;;;;8.05;7.38;;;29.40;1.00;;;;;;5038728;28;20051;-55
2022/09/01 11:15:41;;;;;;;12.65;10.95;;;29.40;1.00;;;;;;5037050;28;20033;-56
2022/09/01 11:18:24;;;;;;;11.98;10.73;;;29.30;1.00;;;;;;5040757;28;20110;-55
2022/09/01 11:20:50;;;;;;;12.98;11.82;;;29.20;1.00;;;;;;5021772;28;20028;-56
2022/09/01 11:23:26;;;;;;;9.55;8.65;;;29.00;1.00;;;;;;5032889;28;20033;-56
2022/09/01 11:25:55;;;;;;;9.45;8.65;;;28.80;1.00;;;;;;5033452;28;20024;-56
2022/09/01 11:28:23;;;;;;;11.65;10.75;;;28.60;1.00;;;;;;5045859;28;20025;-55
2022/09/01 11:30:57;;;;;;;10.88;9.73;;;28.50;1.00;;;;;;5034914;28;20083;-54
2022/09/01 11:33:45;;;;;;;9.32;8.43;;;28.40;1.00;;;;;;5034010;28;20036;-55
2022/09/01 11:36:22;;;;;;;9.18;8.20;;;28.40;1.00;;;;;;5021728;28;20022;-55
2022/09/01 11:38:50;;;;;;;10.55;8.98;;;28.30;1.00;;;;;;5034312;28;20022;-56
2022/09/01 11:41:32;;;;;;;15.90;9.13;;;27.90;1.00;;;;;;5032439;28;20067;-56
2022/09/01 11:44:00;;;;;;;11.15;8.50;;;28.00;1.00;;;;;;5033369;28;20030;-54
2022/09/01 11:46:33;;;;;;;9.30;8.50;;;28.20;1.00;;;;;;5034368;28;20391;-56
2022/09/01 11:49:28;;;;;;;7.75;7.05;;;28.10;1.00;;;;;;5035503;28;20033;-53
2022/09/01 11:51:55;;;;;;;6.60;5.82;;;28.30;1.00;;;;;;5039915;28;20045;-55
2022/09/01 11:54:22;;;;;;;9.55;7.57;;;28.50;1.00;;;;;;5035212;28;20152;-55
2022/09/01 11:56:48;;;;;;;8.52;7.20;;;28.50;1.00;;;;;;5032605;28;20022;-56
2022/09/01 11:59:28;;;;;;;8.70;7.90;;;28.50;1.00;;;;;;5031125;28;20033;-56
2022/09/01 12:01:57;;;;;;;8.50;6.63;;;28.40;1.00;;;;;;5028234;28;20065;-56
2022/09/01 12:04:34;;;;;;;10.82;9.70;;;28.30;1.00;;;;;;5030399;28;20483;-55
2022/09/01 12:07:10;;;;;;;11.18;10.07;;;28.40;1.00;;;;;;5043510;28;20392;-55
2022/09/01 12:09:46;;;;;;;9.20;7.57;;;28.60;1.00;;;;;;5026094;28;20039;-51
2022/09/01 12:12:29;;;;;;;7.78;7.07;;;28.80;1.00;;;;;;5026648;28;20017;-54
2022/09/01 12:14:57;;;;;;;8.90;8.20;;;29.10;1.00;;;;;;5039934;28;20558;-55
2022/09/01 12:17:23;;;;;;;8.90;8.00;;;29.30;1.00;;;;;;5032043;28;20026;-55
2022/09/01 12:19:49;;;;;;;7.75;7.05;;;29.20;1.00;;;;;;5032722;28;20542;-54
2022/09/01 12:22:18;;;;;;;9.45;7.85;;;29.30;1.00;;;;;;5032521;28;20382;-54
2022/09/01 12:24:50;;;;;;;12.68;7.18;;;31.20;1.00;;;;;;5022827;28;20056;-53
2022/09/01 12:27:16;;;;;;;7.70;6.55;;;30.60;1.00;;;;;;5032987;28;20084;-55
2022/09/01 12:29:42;;;;;;;7.93;6.68;;;30.20;1.00;;;;;;5036584;28;20056;-55
2022/09/01 12:32:09;;;;;;;6.72;6.18;;;32.00;1.00;;;;;;5031754;28;20037;-54
2022/09/01 12:34:45;;;;;;;5.88;5.38;;;33.00;1.00;;;;;;5042032;28;20025;-55
2022/09/01 12:37:23;;;;;;;7.45;6.85;;;33.10;1.00;;;;;;5033520;28;20025;-55
2022/09/01 12:39:53;;;;;;;6.80;6.30;;;33.40;1.00;;;;;;5032679;28;20021;-58
2022/09/01 12:42:31;;;;;;;6.93;6.28;;;34.20;1.00;;;;;;5026015;28;20463;-58
2022/09/01 12:45:06;;;;;;;8.10;7.35;;;35.00;1.00;;;;;;5032913;28;20068;-55
2022/09/01 12:47:35;;;;;;;6.05;5.53;;;34.10;1.00;;;;;;5033027;28;20426;-57
2022/09/01 12:50:20;;;;;;;6.47;5.70;;;33.30;1.00;;;;;;5044054;28;20045;-57
2022/09/01 12:52:53;;;;;;;5.05;4.65;;;33.30;1.00;;;;;;5028447;28;20029;-54
2022/09/01 12:55:20;;;;;;;5.70;5.20;;;35.40;1.00;;;;;;5044390;28;20041;-56
2022/09/01 13:07:54;;;;;;;4.68;4.20;;;32.10;1.00;;;;;;5019096;28;20494;-57
2022/09/01 13:10:26;;;;;;;5.15;4.65;;;31.60;1.00;;;;;;5032400;28;20025;-57
2022/09/01 13:12:53;;;;;;;4.35;3.95;;;31.40;1.00;;;;;;5019958;28;20021;-55
2022/09/01 13:15:19;;;;;;;6.55;4.30;;;31.60;1.00;;;;;;5031854;28;20064;-55
2022/09/01 13:17:46;;;;;;;5.45;3.83;;;34.30;1.00;;;;;;5031738;28;20018;-56
2022/09/01 13:20:12;;;;;;;5.45;4.05;;;34.70;1.00;;;;;;5033526;28;20036;-56
2022/09/01 13:22:40;;;;;;;3.90;3.60;;;35.00;1.00;;;;;;5032438;28;20037;-57
2022/09/01 13:25:05;;;;;;;3.85;3.42;;;36.70;1.00;;;;;;5032859;28;20033;-56
2022/09/01 13:27:31;;;;;;;4.90;4.53;;;36.80;1.00;;;;;;5030683;28;20021;-57
2022/09/01 13:29:57;;;;;;;4.65;4.22;;;38.20;1.00;;;;;;5035414;28;20395;-57